Overview Statistics Trail Chart Weather Telemetry Raw packets
 

This is the latest recevied weather packets stored in our database for station/object IU5GBO-13. If no packets are shown the sender has not sent any weather packets the latest 10 day(s).

<< 16 17 18 19 20 21 22 >>
Time Temp. Humidity Pressure Rain* Wind** Luminosity Snow
1777809376 23.33° C 41% 1022 hPa - - - -
1777808776 23.33° C 43% 1022.1 hPa - - - -
1777808176 23.33° C 41% 1021.9 hPa - - - -
1777807576 22.78° C 45% 1022.1 hPa - - - -
1777806976 22.22° C 47% 1022 hPa - - - -
1777806376 21.67° C 48% 1021.9 hPa - - - -
1777805776 21.67° C 49% 1022 hPa - - - -
1777805177 22.22° C 48% 1022 hPa - - - -
1777804577 21.67° C 48% 1022.1 hPa - - - -
1777803976 21.67° C 49% 1022.2 hPa - - - -
1777803376 22.22° C 47% 1022.3 hPa - - - -
1777802776 22.22° C 44% 1022.3 hPa - - - -
1777802177 22.78° C 42% 1022.3 hPa - - - -
1777801576 22.22° C 45% 1022.3 hPa - - - -
1777800976 22.22° C 44% 1022.2 hPa - - - -
1777800376 22.22° C 42% 1022.2 hPa - - - -
1777799776 22.22° C 42% 1022.2 hPa - - - -
1777799176 21.67° C 45% 1022.2 hPa - - - -
1777798576 22.22° C 42% 1022.1 hPa - - - -
1777797976 21.67° C 43% 1022 hPa - - - -
1777797376 22.22° C 40% 1021.9 hPa - - - -
1777796776 21.67° C 43% 1021.9 hPa - - - -
1777796176 22.22° C 41% 1021.7 hPa - - - -
1777795576 21.11° C 46% 1021.8 hPa - - - -
1777794976 20.56° C 50% 1021.8 hPa - - - -

* Rain since midnight (hover to see other rain measurements)
** Current wind speed in m/s (hover to see current wind gust speed)